createdAt,value
2022-08-17T00:00:34.570Z,20.25
2022-08-17T00:03:13.570Z,20.25
2022-08-17T00:06:11.374Z,20.26
2022-08-17T00:08:44.252Z,20.25
2022-08-17T00:11:19.246Z,20.24
2022-08-17T00:13:51.688Z,20.24
2022-08-17T00:16:56.081Z,20.26
2022-08-17T00:19:25.666Z,20.28
2022-08-17T00:22:32.214Z,20.29
2022-08-17T00:24:44.079Z,20.31
2022-08-17T00:27:11.009Z,20.31
2022-08-17T00:29:37.828Z,20.31
2022-08-17T00:33:14.414Z,20.30
2022-08-17T00:34:52.249Z,20.30
2022-08-17T00:37:19.113Z,20.26
2022-08-17T00:39:45.989Z,20.24
2022-08-17T00:42:18.141Z,20.23
2022-08-17T00:44:45.111Z,20.24
2022-08-17T00:47:12.847Z,20.23
2022-08-17T00:49:40.138Z,20.22
2022-08-17T00:52:19.992Z,20.22
2022-08-17T00:54:51.612Z,20.23
2022-08-17T00:57:29.369Z,20.22
2022-08-17T01:00:05.308Z,20.21
2022-08-17T01:02:41.736Z,20.23
2022-08-17T01:05:18.562Z,20.24
2022-08-17T01:07:48.361Z,20.24
2022-08-17T01:10:59.967Z,20.23
2022-08-17T01:13:06.751Z,20.21
2022-08-17T01:15:42.233Z,20.18
2022-08-17T01:18:14.043Z,20.15
2022-08-17T01:20:48.742Z,20.10
2022-08-17T01:23:20.715Z,20.08
2022-08-17T01:25:55.823Z,20.06
2022-08-17T01:28:52.663Z,20.04
2022-08-17T01:31:12.331Z,20.00
2022-08-17T01:33:39.301Z,19.98
2022-08-17T01:36:07.851Z,19.96
2022-08-17T01:38:37.307Z,19.94
2022-08-17T01:41:13.166Z,19.93
2022-08-17T01:43:58.493Z,19.92
2022-08-17T01:46:33.956Z,19.89
2022-08-17T01:49:04.878Z,19.85
2022-08-17T01:51:33.183Z,19.80
2022-08-17T01:54:05.350Z,19.73
2022-08-17T01:56:34.700Z,19.69
2022-08-17T01:59:02.356Z,19.63
2022-08-17T02:01:33.018Z,19.59
2022-08-17T02:04:01.915Z,19.56
2022-08-17T02:06:52.959Z,19.49
2022-08-17T02:09:26.275Z,19.41
2022-08-17T02:12:00.149Z,19.38
2022-08-17T02:14:46.950Z,19.33
2022-08-17T02:17:13.803Z,19.27
2022-08-17T02:19:41.292Z,19.21
2022-08-17T02:22:08.739Z,19.15
2022-08-17T02:24:59.933Z,19.10
2022-08-17T02:27:25.304Z,19.03
2022-08-17T02:29:52.263Z,18.97
2022-08-17T02:32:27.513Z,18.94
2022-08-17T02:34:57.461Z,18.91
2022-08-17T02:37:30.250Z,18.87
2022-08-17T02:39:58.507Z,18.82
2022-08-17T02:42:46.099Z,18.76
2022-08-17T02:45:18.001Z,18.73
2022-08-17T02:47:45.408Z,18.69
2022-08-17T02:50:15.487Z,18.65
2022-08-17T02:52:44.310Z,18.62
2022-08-17T02:55:27.506Z,18.57
2022-08-17T02:57:55.049Z,18.55
2022-08-17T03:00:33.421Z,18.52
2022-08-17T03:03:02.216Z,18.48
2022-08-17T03:05:32.832Z,18.44
2022-08-17T03:08:00.489Z,18.42
2022-08-17T03:10:27.637Z,18.40
2022-08-17T03:12:55.043Z,18.38
2022-08-17T03:15:27.216Z,18.34
2022-08-17T03:17:56.102Z,18.32
2022-08-17T03:20:24.301Z,18.30
2022-08-17T03:22:55.916Z,18.28
2022-08-17T03:25:35.276Z,18.27
2022-08-17T03:28:04.105Z,18.30
2022-08-17T03:30:31.558Z,18.37
2022-08-17T03:33:02.980Z,18.42
2022-08-17T03:35:33.427Z,18.45
2022-08-17T03:38:01.423Z,18.50
2022-08-17T03:40:55.875Z,18.56
2022-08-17T03:43:19.517Z,18.64
2022-08-17T03:46:04.940Z,18.70
2022-08-17T03:48:51.413Z,18.78
2022-08-17T03:51:42.417Z,18.84
2022-08-17T03:54:29.260Z,18.89
2022-08-17T03:57:01.665Z,18.94
2022-08-17T03:59:29.004Z,18.98
2022-08-17T04:02:00.888Z,19.02
2022-08-17T04:04:28.052Z,19.06
2022-08-17T04:06:55.281Z,19.11
2022-08-17T04:09:22.152Z,19.16
2022-08-17T04:11:49.029Z,19.21
2022-08-17T04:14:15.871Z,19.25
2022-08-17T04:16:42.698Z,19.30
2022-08-17T04:19:09.524Z,19.36
2022-08-17T04:21:36.515Z,19.42
2022-08-17T04:24:05.115Z,19.50
2022-08-17T04:26:53.313Z,19.58
2022-08-17T04:29:19.395Z,19.69
2022-08-17T04:31:46.554Z,19.79
2022-08-17T04:34:13.438Z,19.87
2022-08-17T04:36:40.232Z,19.95
2022-08-17T04:39:17.315Z,20.06
2022-08-17T04:42:02.754Z,20.17
2022-08-17T04:44:37.375Z,20.27
2022-08-17T04:47:06.532Z,20.31
2022-08-17T04:49:34.508Z,20.32
2022-08-17T04:52:04.544Z,20.35
2022-08-17T04:54:31.960Z,20.35
2022-08-17T04:56:58.830Z,20.34
2022-08-17T04:59:25.637Z,20.30
2022-08-17T05:01:52.468Z,20.26
2022-08-17T05:04:33.626Z,20.20
2022-08-17T05:07:03.913Z,20.15
2022-08-17T05:09:31.246Z,20.10
2022-08-17T05:12:01.948Z,20.06
2022-08-17T05:14:33.308Z,20.03
2022-08-17T05:17:01.529Z,20.00
2022-08-17T05:19:31.493Z,19.96
2022-08-17T05:21:58.285Z,19.93
2022-08-17T05:24:40.731Z,19.91
2022-08-17T05:27:18.758Z,19.89
2022-08-17T05:29:46.143Z,19.87
2022-08-17T05:32:39.220Z,19.85
2022-08-17T05:35:00.863Z,19.85
2022-08-17T05:37:28.153Z,19.85
2022-08-17T05:39:55.046Z,19.88
2022-08-17T05:42:22.201Z,19.88
2022-08-17T05:44:49.301Z,19.88
2022-08-17T05:47:17.640Z,19.90
2022-08-17T05:49:44.908Z,19.93
2022-08-17T05:52:43.234Z,19.97
2022-08-17T05:55:24.090Z,20.02
2022-08-17T05:58:04.318Z,20.09
2022-08-17T06:01:01.630Z,20.18
2022-08-17T06:04:05.761Z,20.29
2022-08-17T06:07:01.237Z,20.40
2022-08-17T06:10:06.877Z,20.48
2022-08-17T06:12:48.104Z,20.57
2022-08-17T06:15:39.664Z,20.64
2022-08-17T06:18:10.128Z,20.75
2022-08-17T06:20:58.391Z,20.88
2022-08-17T06:23:58.801Z,21.05
2022-08-17T06:26:38.470Z,21.31
2022-08-17T06:29:29.670Z,21.54
2022-08-17T06:31:57.049Z,21.69
2022-08-17T06:34:23.990Z,21.84
2022-08-17T06:37:04.918Z,22.01
2022-08-17T06:39:53.180Z,22.19
2022-08-17T06:42:59.888Z,22.40
2022-08-17T06:46:10.881Z,22.63
2022-08-17T06:48:51.761Z,22.89
2022-08-17T06:51:39.783Z,23.16
2022-08-17T06:54:38.861Z,23.46
2022-08-17T06:57:25.904Z,23.75
2022-08-17T07:00:01.216Z,23.93
2022-08-17T07:02:56.296Z,24.01
2022-08-17T07:06:17.640Z,24.09
2022-08-17T07:09:05.974Z,24.18
2022-08-17T07:11:58.341Z,24.26
2022-08-17T07:14:52.704Z,24.30
2022-08-17T07:17:46.522Z,24.30
2022-08-17T07:20:15.035Z,24.32
2022-08-17T07:23:04.077Z,24.36
2022-08-17T07:25:30.973Z,24.44
2022-08-17T07:28:06.835Z,24.53
2022-08-17T07:30:46.886Z,24.62
2022-08-17T07:33:26.894Z,24.70
2022-08-17T07:35:56.699Z,24.80
2022-08-17T07:38:34.847Z,24.90
2022-08-17T07:41:08.333Z,25.01
2022-08-17T07:43:40.656Z,25.13
2022-08-17T07:46:45.761Z,25.24
2022-08-17T07:49:12.504Z,25.40
2022-08-17T07:51:41.977Z,25.51
2022-08-17T07:54:15.049Z,25.58
2022-08-17T07:56:59.921Z,25.66
2022-08-17T07:59:34.057Z,25.72
2022-08-17T08:02:05.615Z,25.80
2022-08-17T08:05:06.763Z,25.89
2022-08-17T08:07:59.493Z,26.02
2022-08-17T08:10:35.052Z,26.15
2022-08-17T08:13:20.123Z,26.26
2022-08-17T08:15:54.034Z,26.38
2022-08-17T08:18:53.773Z,26.51
2022-08-17T08:21:51.557Z,26.60
2022-08-17T08:24:40.098Z,26.67
2022-08-17T08:27:26.665Z,26.75
2022-08-17T08:30:23.201Z,26.77
2022-08-17T08:33:07.044Z,26.81
2022-08-17T08:35:43.810Z,26.81
2022-08-17T08:38:41.992Z,26.84
2022-08-17T08:41:37.988Z,26.83
2022-08-17T08:45:04.254Z,26.84
2022-08-17T08:47:53.313Z,26.82
2022-08-17T08:50:39.798Z,26.86
2022-08-17T08:53:35.659Z,26.91
2022-08-17T08:56:23.141Z,26.94
2022-08-17T08:58:58.775Z,26.96
2022-08-17T09:01:42.337Z,26.98
2022-08-17T09:05:10.389Z,27.05
2022-08-17T09:07:42.269Z,27.13
2022-08-17T09:10:57.764Z,27.18
2022-08-17T09:13:27.160Z,27.24
2022-08-17T09:16:06.310Z,27.26
2022-08-17T09:19:00.554Z,27.26
2022-08-17T09:21:54.948Z,27.28
2022-08-17T09:24:43.115Z,27.36
2022-08-17T09:27:47.442Z,27.36
2022-08-17T09:30:14.373Z,27.34
2022-08-17T09:32:49.250Z,27.34
2022-08-17T09:35:32.806Z,27.38
2022-08-17T09:38:12.757Z,27.44
2022-08-17T09:41:19.063Z,27.43
2022-08-17T09:44:31.710Z,27.47
2022-08-17T09:47:12.631Z,27.54
2022-08-17T09:49:50.416Z,27.56
2022-08-17T09:52:27.809Z,27.53
2022-08-17T09:54:57.589Z,27.45
2022-08-17T09:58:04.635Z,27.34
2022-08-17T10:00:43.853Z,27.23
2022-08-17T10:03:25.460Z,27.16
2022-08-17T10:06:12.852Z,27.12
2022-08-17T10:09:07.533Z,27.02
2022-08-17T10:12:23.146Z,26.96
2022-08-17T10:15:12.944Z,26.90
2022-08-17T10:17:55.025Z,26.84
2022-08-17T10:20:30.314Z,26.78
2022-08-17T10:23:34.700Z,26.76
2022-08-17T10:26:24.345Z,26.85
2022-08-17T10:29:03.761Z,26.97
2022-08-17T10:31:46.051Z,27.05
2022-08-17T10:34:45.094Z,27.12
2022-08-17T10:37:30.387Z,27.18
2022-08-17T10:40:31.761Z,27.25
2022-08-17T10:43:44.033Z,27.36
2022-08-17T10:47:10.772Z,27.46
2022-08-17T10:49:46.997Z,27.52
2022-08-17T10:52:19.640Z,27.58
2022-08-17T10:55:05.452Z,27.64
2022-08-17T10:57:36.322Z,27.72
2022-08-17T11:00:34.612Z,27.80
2022-08-17T11:03:07.352Z,27.84
2022-08-17T11:06:04.916Z,27.88
2022-08-17T11:08:43.581Z,27.95
2022-08-17T11:11:38.462Z,28.01
2022-08-17T11:14:28.583Z,28.06
2022-08-17T11:17:19.613Z,28.10
2022-08-17T11:20:23.241Z,28.10
2022-08-17T11:23:32.044Z,28.14
2022-08-17T11:26:07.986Z,28.19
2022-08-17T11:28:50.359Z,28.23
2022-08-17T11:31:38.487Z,28.28
2022-08-17T11:34:25.758Z,28.31
2022-08-17T11:37:17.225Z,28.34
2022-08-17T11:40:09.245Z,28.36
2022-08-17T11:42:42.004Z,28.33
2022-08-17T11:45:35.253Z,28.28
2022-08-17T11:48:40.035Z,28.23
2022-08-17T11:51:35.574Z,28.24
2022-08-17T11:56:52.907Z,28.29
2022-08-17T11:59:43.056Z,28.31
2022-08-17T12:02:32.400Z,28.35
2022-08-17T12:05:01.831Z,28.38
2022-08-17T12:07:32.452Z,28.38
2022-08-17T12:10:00.675Z,28.38
2022-08-17T12:12:35.165Z,28.42
2022-08-17T12:15:10.708Z,28.47
2022-08-17T12:17:51.925Z,28.51
2022-08-17T12:20:39.999Z,28.54
2022-08-17T12:23:15.557Z,28.59
2022-08-17T12:25:58.781Z,28.62
2022-08-17T12:28:30.318Z,28.63
2022-08-17T12:31:11.169Z,28.65
2022-08-17T12:33:45.480Z,28.70
2022-08-17T12:36:20.881Z,28.73
2022-08-17T12:39:14.214Z,28.77
2022-08-17T12:41:47.371Z,28.81
2022-08-17T12:44:31.475Z,28.83
2022-08-17T12:47:21.982Z,28.90
2022-08-17T12:50:03.432Z,28.96
2022-08-17T12:52:32.436Z,29.04
2022-08-17T12:55:01.276Z,29.13
2022-08-17T12:57:43.330Z,29.19
2022-08-17T13:00:21.572Z,29.22
2022-08-17T13:02:52.880Z,29.26
2022-08-17T13:05:37.871Z,29.30
2022-08-17T13:08:34.932Z,29.34
2022-08-17T13:11:18.995Z,29.38
2022-08-17T13:13:55.500Z,29.41
2022-08-17T13:16:30.361Z,29.40
2022-08-17T13:19:15.306Z,29.33
2022-08-17T13:21:49.409Z,29.22
2022-08-17T13:24:23.523Z,29.18
2022-08-17T13:27:07.980Z,29.17
2022-08-17T13:29:59.932Z,29.20
2022-08-17T13:32:44.098Z,29.27
2022-08-17T13:35:50.117Z,29.30
2022-08-17T13:38:49.076Z,29.31
2022-08-17T13:41:37.295Z,29.31
2022-08-17T13:44:34.558Z,29.30
2022-08-17T13:47:03.945Z,29.37
2022-08-17T13:49:48.659Z,29.47
2022-08-17T13:52:42.556Z,29.63
2022-08-17T13:55:22.141Z,29.80
2022-08-17T13:58:03.639Z,29.92
2022-08-17T14:00:36.139Z,29.98
2022-08-17T14:03:04.598Z,29.98
2022-08-17T14:05:33.288Z,29.87
2022-08-17T14:08:06.910Z,29.74
2022-08-17T14:10:35.841Z,29.61
2022-08-17T14:13:03.515Z,29.49
2022-08-17T14:15:55.078Z,29.26
2022-08-17T14:18:55.405Z,29.14
2022-08-17T14:21:07.824Z,29.13
2022-08-17T14:23:36.557Z,29.18
2022-08-17T14:26:04.226Z,29.15
2022-08-17T14:28:31.041Z,29.09
2022-08-17T14:31:00.562Z,29.05
2022-08-17T14:33:28.480Z,29.01
2022-08-17T14:35:56.994Z,28.90
2022-08-17T14:38:24.116Z,28.75
2022-08-17T14:40:51.464Z,28.62
2022-08-17T14:43:19.770Z,28.42
2022-08-17T14:45:46.666Z,28.32
2022-08-17T14:48:13.568Z,28.32
2022-08-17T14:50:42.895Z,28.30
2022-08-17T14:53:13.541Z,28.27
2022-08-17T14:55:40.689Z,28.23
2022-08-17T14:58:08.389Z,28.20
2022-08-17T15:00:38.866Z,28.19
2022-08-17T15:03:05.703Z,28.20
2022-08-17T15:05:35.969Z,28.26
2022-08-17T15:08:04.886Z,28.28
2022-08-17T15:10:32.659Z,28.26
2022-08-17T15:12:59.797Z,28.27
2022-08-17T15:15:27.435Z,28.31
2022-08-17T15:17:54.280Z,28.33
2022-08-17T15:20:27.210Z,28.37
2022-08-17T15:22:55.543Z,28.43
2022-08-17T15:25:25.352Z,28.42
2022-08-17T15:27:53.236Z,28.39
2022-08-17T15:30:20.659Z,28.35
2022-08-17T15:32:54.583Z,28.30
2022-08-17T15:35:28.941Z,28.21
2022-08-17T15:38:03.392Z,28.12
2022-08-17T15:40:39.825Z,27.97
2022-08-17T15:43:10.890Z,27.70
2022-08-17T15:45:38.683Z,26.71
2022-08-17T15:48:05.588Z,25.80
2022-08-17T15:50:32.520Z,25.15
2022-08-17T15:53:01.626Z,24.51
2022-08-17T15:55:30.577Z,24.10
2022-08-17T15:57:57.847Z,23.98
2022-08-17T16:00:25.524Z,23.88
2022-08-17T16:03:44.451Z,23.91
2022-08-17T16:05:41.055Z,23.94
2022-08-17T16:08:10.348Z,23.99
2022-08-17T16:10:37.532Z,24.03
2022-08-17T16:13:04.523Z,24.08
2022-08-17T16:15:31.919Z,24.17
2022-08-17T16:17:59.205Z,24.23
2022-08-17T16:20:26.786Z,24.31
2022-08-17T16:22:54.972Z,24.34
2022-08-17T16:25:38.281Z,24.37
2022-08-17T16:28:16.300Z,24.40
2022-08-17T16:30:43.704Z,24.46
2022-08-17T16:33:11.710Z,24.54
2022-08-17T16:35:39.263Z,24.58
2022-08-17T16:38:07.119Z,24.61
2022-08-17T16:40:35.837Z,24.64
2022-08-17T16:43:11.433Z,24.67
2022-08-17T16:45:39.678Z,24.70
2022-08-17T16:48:08.845Z,24.74
2022-08-17T16:50:36.357Z,24.76
2022-08-17T16:53:16.597Z,24.78
2022-08-17T16:55:46.068Z,24.78
2022-08-17T16:58:14.742Z,24.78
2022-08-17T17:00:44.458Z,24.79
2022-08-17T17:03:19.033Z,24.78
2022-08-17T17:06:18.721Z,24.78
2022-08-17T17:08:51.158Z,24.78
2022-08-17T17:11:30.648Z,24.75
2022-08-17T17:14:01.448Z,24.75
2022-08-17T17:16:28.172Z,24.76
2022-08-17T17:18:59.443Z,24.75
2022-08-17T17:21:37.264Z,24.72
2022-08-17T17:24:11.771Z,24.69
2022-08-17T17:27:18.021Z,24.71
2022-08-17T17:30:07.082Z,24.71
2022-08-17T17:32:55.641Z,24.66
2022-08-17T17:35:33.932Z,24.62
2022-08-17T17:38:12.197Z,24.59
2022-08-17T17:40:47.033Z,24.54
2022-08-17T17:43:37.690Z,24.48
2022-08-17T17:46:28.568Z,24.43
2022-08-17T17:48:59.985Z,24.39
2022-08-17T17:52:06.859Z,24.34
2022-08-17T17:54:59.711Z,24.29
2022-08-17T17:58:04.883Z,24.28
2022-08-17T18:01:23.872Z,24.27
2022-08-17T18:04:08.878Z,24.21
2022-08-17T18:07:06.699Z,24.17
2022-08-17T18:10:03.234Z,24.12
2022-08-17T18:12:59.627Z,24.09
2022-08-17T18:15:50.390Z,24.03
2022-08-17T18:18:17.117Z,23.99
2022-08-17T18:20:54.069Z,23.93
2022-08-17T18:23:28.148Z,23.86
2022-08-17T18:25:58.030Z,23.81
2022-08-17T18:28:40.490Z,23.76
2022-08-17T18:31:19.502Z,23.69
2022-08-17T18:33:51.836Z,23.62
2022-08-17T18:36:39.199Z,23.56
2022-08-17T18:39:29.152Z,23.51
2022-08-17T18:41:59.849Z,23.47
2022-08-17T18:44:39.915Z,23.43
2022-08-17T18:47:28.750Z,23.39
2022-08-17T18:50:24.903Z,23.36
2022-08-17T18:52:54.548Z,23.29
2022-08-17T18:55:30.692Z,23.22
2022-08-17T18:58:15.417Z,23.18
2022-08-17T19:00:46.797Z,23.11
2022-08-17T19:03:17.265Z,23.06
2022-08-17T19:05:56.326Z,23.02
2022-08-17T19:08:29.163Z,22.99
2022-08-17T19:11:18.350Z,22.95
2022-08-17T19:13:54.624Z,22.90
2022-08-17T19:16:29.489Z,22.86
2022-08-17T19:19:22.749Z,22.81
2022-08-17T19:22:02.709Z,22.75
2022-08-17T19:24:33.700Z,22.71
2022-08-17T19:27:25.726Z,22.68
2022-08-17T19:30:10.835Z,22.61
2022-08-17T19:32:38.067Z,22.58
2022-08-17T19:35:15.023Z,22.57
2022-08-17T19:37:50.908Z,22.55
2022-08-17T19:40:52.983Z,22.49
2022-08-17T19:43:47.457Z,22.41
2022-08-17T19:46:14.241Z,22.37
2022-08-17T19:49:41.011Z,22.35
2022-08-17T19:52:56.662Z,22.35
2022-08-17T19:56:11.568Z,22.43
2022-08-17T19:59:07.929Z,22.48
2022-08-17T20:02:11.092Z,22.52
2022-08-17T20:04:44.556Z,22.51
2022-08-17T20:07:53.963Z,22.50
2022-08-17T20:10:44.925Z,22.51
2022-08-17T20:13:33.516Z,22.54
2022-08-17T20:16:03.070Z,22.56
2022-08-17T20:18:32.842Z,22.57
2022-08-17T20:21:26.199Z,22.55
2022-08-17T20:24:28.508Z,22.50
2022-08-17T20:27:00.985Z,22.48
2022-08-17T20:29:54.472Z,22.43
2022-08-17T20:32:28.999Z,22.42
2022-08-17T20:35:29.802Z,22.42
2022-08-17T20:38:06.022Z,22.41
2022-08-17T20:40:56.790Z,22.39
2022-08-17T20:43:32.548Z,22.37
2022-08-17T20:46:35.858Z,22.34
2022-08-17T20:49:26.409Z,22.32
2022-08-17T20:52:15.996Z,22.28
2022-08-17T20:54:52.256Z,22.23
2022-08-17T20:57:31.424Z,22.20
2022-08-17T21:00:00.369Z,22.16
2022-08-17T21:02:28.890Z,22.14
2022-08-17T21:04:56.324Z,22.11
2022-08-17T21:07:48.040Z,22.10
2022-08-17T21:10:33.637Z,22.11
2022-08-17T21:13:37.764Z,22.12
2022-08-17T21:16:42.349Z,22.10
2022-08-17T21:20:09.746Z,22.10
2022-08-17T21:22:59.674Z,22.09
2022-08-17T21:25:41.821Z,22.08
2022-08-17T21:29:00.603Z,22.05
2022-08-17T21:31:33.185Z,22.03
2022-08-17T21:34:26.768Z,22.01
2022-08-17T21:36:56.159Z,21.97
2022-08-17T21:39:39.722Z,21.93
2022-08-17T21:42:07.542Z,21.87
2022-08-17T21:44:46.839Z,21.79
2022-08-17T21:47:24.933Z,21.72
2022-08-17T21:49:55.108Z,21.65
2022-08-17T21:52:26.314Z,21.59
2022-08-17T21:55:01.888Z,21.53
2022-08-17T21:57:31.277Z,21.44
2022-08-17T22:00:15.133Z,21.37
2022-08-17T22:02:42.850Z,21.31
2022-08-17T22:05:14.021Z,21.27
2022-08-17T22:08:01.569Z,21.23
2022-08-17T22:10:33.853Z,21.19
2022-08-17T22:13:16.826Z,21.15
2022-08-17T22:15:48.424Z,21.10
2022-08-17T22:18:28.256Z,21.04
2022-08-17T22:20:58.662Z,20.99
2022-08-17T22:23:52.893Z,20.94
2022-08-17T22:26:24.107Z,20.89
2022-08-17T22:28:57.891Z,20.83
2022-08-17T22:31:28.981Z,20.77
2022-08-17T22:34:01.257Z,20.72
2022-08-17T22:36:38.427Z,20.67
2022-08-17T22:39:07.945Z,20.62
2022-08-17T22:42:00.192Z,20.57
2022-08-17T22:44:47.317Z,20.52
2022-08-17T22:47:14.040Z,20.49
2022-08-17T22:49:53.753Z,20.47
2022-08-17T22:52:32.383Z,20.46
2022-08-17T22:55:35.431Z,20.46
2022-08-17T22:58:28.510Z,20.49
2022-08-17T23:00:55.665Z,20.56
2022-08-17T23:03:27.363Z,20.60
2022-08-17T23:06:10.400Z,20.57
2022-08-17T23:08:54.041Z,20.55
2022-08-17T23:11:36.797Z,20.54
2022-08-17T23:14:13.935Z,20.56
2022-08-17T23:16:42.008Z,20.57
2022-08-17T23:19:15.145Z,20.56
2022-08-17T23:21:46.490Z,20.58
2022-08-17T23:24:21.745Z,20.60
2022-08-17T23:26:49.080Z,20.62
2022-08-17T23:29:15.958Z,20.64
2022-08-17T23:31:42.909Z,20.64
2022-08-17T23:34:12.811Z,20.64
2022-08-17T23:36:39.834Z,20.66
2022-08-17T23:39:07.209Z,20.65
2022-08-17T23:41:39.374Z,20.66
2022-08-17T23:44:06.684Z,20.64
2022-08-17T23:46:34.009Z,20.65
2022-08-17T23:49:01.187Z,20.66
2022-08-17T23:51:37.674Z,20.67
2022-08-17T23:54:27.692Z,20.68
2022-08-17T23:56:54.696Z,20.69
2022-08-17T23:59:22.907Z,20.69
